Time;durP1;ratioP1;P1;durP2;ratioP2;P2;SDS_P1;SDS_P2;PMS_P1;PMS_P2;Temp;Humidity;BMP_temperature;BMP_pressure;BME280_temperature;BME280_humidity;BME280_pressure;Samples;Min_cycle;Max_cycle;Signal;HPM_P1;HPM_P2
2023/01/25 00:00:14;;;;;;;1999.90;999.90;;;2.60;99.90;;;;;;5074907;28;20025;-74
2023/01/25 00:02:39;;;;;;;1999.90;999.90;;;2.60;99.90;;;;;;5075257;28;20040;-75
2023/01/25 00:05:05;;;;;;;1999.90;999.90;;;2.50;99.90;;;;;;5075085;28;20055;-75
2023/01/25 00:07:31;;;;;;;1999.90;999.90;;;2.50;99.90;;;;;;5074762;28;20033;-75
2023/01/25 00:09:56;;;;;;;1999.90;999.90;;;2.50;99.90;;;;;;5075151;28;20432;-74
2023/01/25 00:12:22;;;;;;;1999.90;999.90;;;2.50;99.90;;;;;;5073519;28;20372;-74
2023/01/25 00:14:47;;;;;;;1999.90;999.90;;;2.50;99.90;;;;;;5075002;28;20041;-74
2023/01/25 00:17:13;;;;;;;1999.90;999.90;;;2.50;99.90;;;;;;5074652;28;20075;-74
2023/01/25 00:19:38;;;;;;;1999.90;999.90;;;2.50;99.90;;;;;;5074821;28;20483;-74
2023/01/25 00:22:04;;;;;;;1999.90;999.90;;;2.50;99.90;;;;;;5073342;28;20160;-74
2023/01/25 00:24:29;;;;;;;1999.90;999.90;;;2.50;99.90;;;;;;5075074;28;20108;-75
2023/01/25 00:26:55;;;;;;;1999.90;999.90;;;2.50;99.90;;;;;;5072986;28;20148;-74
2023/01/25 00:29:20;;;;;;;1999.90;999.90;;;2.50;99.90;;;;;;5074897;28;20044;-75
2023/01/25 00:31:54;;;;;;;1999.90;999.90;;;2.60;99.90;;;;;;5073310;28;20476;-74
2023/01/25 00:34:25;;;;;;;1999.90;999.90;;;2.60;99.90;;;;;;5072352;28;20140;-74
2023/01/25 00:37:21;;;;;;;1999.90;999.90;;;2.60;99.90;;;;;;5074160;28;20107;-74
2023/01/25 00:39:46;;;;;;;1999.90;999.90;;;2.60;99.90;;;;;;5061570;28;20041;-74
2023/01/25 00:42:14;;;;;;;1999.90;999.90;;;2.50;99.90;;;;;;5074762;28;20478;-74
2023/01/25 00:44:39;;;;;;;1999.90;999.90;;;2.60;99.90;;;;;;5072980;28;20032;-75
2023/01/25 00:47:05;;;;;;;1999.90;999.90;;;2.50;99.90;;;;;;5074545;28;20041;-75
2023/01/25 00:49:32;;;;;;;1999.90;999.90;;;2.50;99.90;;;;;;5074314;28;20116;-75
2023/01/25 00:51:58;;;;;;;1999.90;999.90;;;2.50;99.90;;;;;;5073091;28;20481;-75
2023/01/25 00:54:24;;;;;;;1999.90;999.90;;;2.50;99.90;;;;;;5074602;28;20033;-75
2023/01/25 00:56:55;;;;;;;1999.90;999.90;;;2.50;99.90;;;;;;5072050;28;20045;-75
2023/01/25 00:59:21;;;;;;;1999.90;999.90;;;2.40;99.90;;;;;;5072834;28;20029;-75
2023/01/25 01:01:47;;;;;;;1999.90;999.90;;;2.40;99.90;;;;;;5074353;28;20037;-75
2023/01/25 01:04:12;;;;;;;1999.90;999.90;;;2.40;99.90;;;;;;5074372;28;20033;-75
2023/01/25 01:06:38;;;;;;;1999.90;999.90;;;2.40;99.90;;;;;;5073751;28;20064;-75
2023/01/25 01:09:05;;;;;;;1999.90;999.90;;;2.40;99.90;;;;;;5074174;28;20025;-75
2023/01/25 01:11:31;;;;;;;1999.90;999.90;;;2.40;99.90;;;;;;5074320;28;20037;-75
2023/01/25 01:13:57;;;;;;;1999.90;999.90;;;2.40;99.90;;;;;;5072897;28;20387;-75
2023/01/25 01:16:23;;;;;;;1999.90;999.90;;;2.40;99.90;;;;;;5074352;28;20516;-75
2023/01/25 01:18:49;;;;;;;1999.90;999.90;;;2.30;99.90;;;;;;5073989;28;20037;-75
2023/01/25 01:21:15;;;;;;;1999.90;999.90;;;2.30;99.90;;;;;;5073157;28;20461;-75
2023/01/25 01:23:41;;;;;;;1999.90;999.90;;;2.30;99.90;;;;;;5073934;28;20037;-75
2023/01/25 01:26:10;;;;;;;1999.90;999.90;;;2.30;99.90;;;;;;5074056;28;20045;-75
2023/01/25 01:28:38;;;;;;;1999.90;999.90;;;2.30;99.90;;;;;;5073723;28;20470;-75
2023/01/25 01:31:16;;;;;;;1999.90;999.90;;;2.30;99.90;;;;;;5073904;28;20037;-75
2023/01/25 01:33:42;;;;;;;1999.90;999.90;;;2.30;99.90;;;;;;5072459;28;20036;-75
2023/01/25 01:36:08;;;;;;;1999.90;999.90;;;2.30;99.90;;;;;;5073913;28;20056;-75
2023/01/25 01:38:34;;;;;;;1999.90;999.90;;;2.30;99.90;;;;;;5073221;28;20037;-75
2023/01/25 01:41:00;;;;;;;1999.90;999.90;;;2.30;99.90;;;;;;5073919;28;20037;-75
2023/01/25 01:43:26;;;;;;;1999.90;999.90;;;2.30;99.90;;;;;;5073990;28;20036;-75
2023/01/25 01:45:55;;;;;;;1999.90;999.90;;;2.30;99.90;;;;;;5075769;28;20036;-75
2023/01/25 01:48:39;;;;;;;1999.90;999.90;;;2.30;99.90;;;;;;5076531;28;20032;-75
2023/01/25 01:51:10;;;;;;;1999.90;999.90;;;2.30;99.90;;;;;;5077445;28;20044;-75
2023/01/25 01:53:37;;;;;;;1999.90;999.90;;;2.30;99.90;;;;;;5077155;28;20033;-74
2023/01/25 01:56:07;;;;;;;1999.90;999.90;;;2.30;99.90;;;;;;5077092;28;20076;-75
2023/01/25 01:58:34;;;;;;;1999.90;999.90;;;2.30;99.90;;;;;;5075255;28;20043;-75
2023/01/25 02:00:59;;;;;;;1999.90;999.90;;;2.30;99.90;;;;;;5076864;28;20060;-75
2023/01/25 02:03:25;;;;;;;1999.90;999.90;;;2.30;99.90;;;;;;5077205;28;20032;-75
2023/01/25 02:06:01;;;;;;;1999.90;999.90;;;2.30;99.90;;;;;;5076988;28;20112;-75
2023/01/25 02:08:31;;;;;;;1999.90;999.90;;;2.20;99.90;;;;;;5075152;28;20506;-75
2023/01/25 02:10:59;;;;;;;1999.90;999.90;;;2.20;99.90;;;;;;5076440;28;20116;-75
2023/01/25 02:13:25;;;;;;;1999.90;999.90;;;2.20;99.90;;;;;;5075370;28;20037;-75
2023/01/25 02:15:52;;;;;;;1999.90;999.90;;;2.20;99.90;;;;;;5076761;28;20168;-75
2023/01/25 02:18:18;;;;;;;1999.90;999.90;;;2.20;99.90;;;;;;5076584;28;20489;-75
2023/01/25 02:20:50;;;;;;;1999.90;999.90;;;2.20;99.90;;;;;;5076857;28;20033;-74
2023/01/25 02:24:04;;;;;;;1999.90;999.90;;;2.20;99.90;;;;;;5076635;28;20132;-75
2023/01/25 02:26:30;;;;;;;1999.90;999.90;;;2.30;99.90;;;;;;5014249;28;20103;-75
2023/01/25 02:29:00;;;;;;;1999.90;999.90;;;2.30;99.90;;;;;;5064530;28;20037;-74
2023/01/25 02:31:26;;;;;;;1999.90;999.90;;;2.20;99.90;;;;;;5076463;28;20086;-75
2023/01/25 02:33:52;;;;;;;1999.90;999.90;;;2.30;99.90;;;;;;5076432;28;20033;-75
2023/01/25 02:36:32;;;;;;;1999.90;999.90;;;2.30;99.90;;;;;;5076159;28;20045;-75
2023/01/25 02:39:12;;;;;;;1999.90;999.90;;;2.30;99.90;;;;;;5076523;28;20609;-75
2023/01/25 02:41:39;;;;;;;1999.90;999.90;;;2.30;99.90;;;;;;5076627;28;20032;-75
2023/01/25 02:44:17;;;;;;;1999.90;999.90;;;2.30;99.90;;;;;;5076431;28;20048;-75
2023/01/25 02:46:46;;;;;;;1999.90;999.90;;;2.30;99.90;;;;;;5073545;28;20033;-75
2023/01/25 02:49:13;;;;;;;1999.90;999.90;;;2.30;99.90;;;;;;5076491;28;20059;-75
2023/01/25 02:51:41;;;;;;;1999.90;999.90;;;2.30;99.90;;;;;;5076334;28;20029;-75
2023/01/25 02:54:09;;;;;;;1999.90;999.90;;;2.30;99.90;;;;;;5075929;28;20527;-74
2023/01/25 02:56:35;;;;;;;1999.90;999.90;;;2.30;99.90;;;;;;5074720;28;20476;-75
2023/01/25 02:59:04;;;;;;;1999.90;999.90;;;2.30;99.90;;;;;;5076144;28;20033;-75
2023/01/25 03:01:34;;;;;;;1999.90;999.90;;;2.30;99.90;;;;;;5076017;28;20029;-75
2023/01/25 03:04:00;;;;;;;1999.90;999.90;;;2.30;99.90;;;;;;5075931;28;20048;-75
2023/01/25 03:06:25;;;;;;;1999.90;999.90;;;2.30;99.90;;;;;;5074146;28;20033;-75
2023/01/25 03:08:51;;;;;;;1999.90;999.90;;;2.30;99.90;;;;;;5075578;28;20091;-75
2023/01/25 03:11:16;;;;;;;1999.90;999.90;;;2.30;99.90;;;;;;5075951;28;20033;-75
2023/01/25 03:13:42;;;;;;;1999.90;999.90;;;2.30;99.90;;;;;;5075644;28;20040;-75
2023/01/25 03:16:10;;;;;;;1999.90;999.90;;;2.30;99.90;;;;;;5075777;28;20029;-75
2023/01/25 03:18:37;;;;;;;1999.90;999.90;;;2.30;99.90;;;;;;5075319;28;20045;-75
2023/01/25 03:21:10;;;;;;;1999.90;999.90;;;2.30;99.90;;;;;;5075302;28;20032;-75
2023/01/25 03:23:36;;;;;;;1999.90;999.90;;;2.30;99.90;;;;;;5074307;28;20132;-75
2023/01/25 03:26:19;;;;;;;1999.90;999.90;;;2.30;99.90;;;;;;5075687;28;20132;-75
2023/01/25 03:28:44;;;;;;;1999.90;999.90;;;2.30;99.90;;;;;;5073833;28;20036;-75
2023/01/25 03:31:12;;;;;;;1999.90;999.90;;;2.30;99.90;;;;;;5075741;28;20056;-75
2023/01/25 03:33:39;;;;;;;1999.90;999.90;;;2.30;99.90;;;;;;5075680;28;20037;-75
2023/01/25 03:36:05;;;;;;;1999.90;999.90;;;2.30;99.90;;;;;;5075460;28;20041;-75
2023/01/25 03:38:31;;;;;;;1999.90;999.90;;;2.30;99.90;;;;;;5073680;28;20462;-75
2023/01/25 03:40:57;;;;;;;1999.90;999.90;;;2.20;99.90;;;;;;5075442;28;20044;-75
2023/01/25 03:43:23;;;;;;;1999.90;999.90;;;2.30;99.90;;;;;;5075549;28;20045;-75
2023/01/25 03:45:58;;;;;;;1999.90;999.90;;;2.30;99.90;;;;;;5075292;28;20095;-75
2023/01/25 03:48:25;;;;;;;1999.90;999.90;;;2.30;99.90;;;;;;5073405;28;20044;-75
2023/01/25 03:50:53;;;;;;;1999.90;999.90;;;2.20;99.90;;;;;;5075171;28;20029;-75
2023/01/25 03:53:27;;;;;;;1999.90;999.90;;;2.30;99.90;;;;;;5075391;28;20517;-74
2023/01/25 03:56:01;;;;;;;1999.90;999.90;;;2.20;99.90;;;;;;5073485;28;20529;-75
2023/01/25 03:58:27;;;;;;;1999.90;999.90;;;2.20;99.90;;;;;;5074704;28;20147;-75
2023/01/25 04:00:55;;;;;;;1999.90;999.90;;;2.20;99.90;;;;;;5075227;28;20033;-75
2023/01/25 04:03:21;;;;;;;1999.90;999.90;;;2.20;99.90;;;;;;5074870;28;20047;-75
2023/01/25 04:05:47;;;;;;;1999.90;999.90;;;2.30;99.90;;;;;;5075059;28;20040;-75
2023/01/25 04:08:13;;;;;;;1999.90;999.90;;;2.30;99.90;;;;;;5073095;28;20045;-74
2023/01/25 04:10:39;;;;;;;1999.90;999.90;;;2.30;99.90;;;;;;5075203;28;20120;-74
2023/01/25 04:13:04;;;;;;;1999.90;999.90;;;2.30;99.90;;;;;;5074678;28;20553;-75
2023/01/25 04:15:30;;;;;;;1999.90;999.90;;;2.30;99.90;;;;;;5074459;28;20398;-75
2023/01/25 04:17:55;;;;;;;1999.90;999.90;;;2.30;99.90;;;;;;5072668;28;21268;-75
2023/01/25 04:20:21;;;;;;;1999.90;999.90;;;2.30;99.90;;;;;;5073477;28;20163;-75
2023/01/25 04:22:47;;;;;;;1999.90;999.90;;;2.20;99.90;;;;;;5073525;28;20036;-74
2023/01/25 04:25:12;;;;;;;1999.90;999.90;;;2.20;99.90;;;;;;5074777;28;20087;-75
2023/01/25 04:27:38;;;;;;;1999.90;999.90;;;2.20;99.90;;;;;;5074106;28;20052;-75
2023/01/25 04:30:04;;;;;;;1999.90;999.90;;;2.20;99.90;;;;;;5074796;28;20486;-75
2023/01/25 04:32:30;;;;;;;1999.90;999.90;;;2.20;99.90;;;;;;5074804;28;20115;-75
2023/01/25 04:34:56;;;;;;;1999.90;999.90;;;2.20;99.90;;;;;;5073065;28;20112;-75
2023/01/25 04:37:21;;;;;;;1999.90;999.90;;;2.20;99.90;;;;;;5074113;28;20037;-75
2023/01/25 04:39:47;;;;;;;1999.90;999.90;;;2.10;99.90;;;;;;5074413;28;20036;-75
2023/01/25 04:42:12;;;;;;;1999.90;999.90;;;2.20;99.90;;;;;;5072662;28;25943;-75
2023/01/25 04:44:38;;;;;;;1999.90;999.90;;;2.20;99.90;;;;;;5074628;28;20039;-75
2023/01/25 04:47:03;;;;;;;1999.90;999.90;;;2.20;99.90;;;;;;5073218;28;24029;-75
2023/01/25 04:49:29;;;;;;;1999.90;999.90;;;2.20;99.90;;;;;;5074640;28;20395;-75
2023/01/25 04:51:54;;;;;;;1999.90;999.90;;;2.20;99.90;;;;;;5074388;28;20032;-75
2023/01/25 04:54:20;;;;;;;1999.90;999.90;;;2.20;99.90;;;;;;5073984;28;20487;-74
2023/01/25 04:56:45;;;;;;;1999.90;999.90;;;2.10;99.90;;;;;;5073651;28;20048;-75
2023/01/25 04:59:11;;;;;;;1999.90;999.90;;;2.10;99.90;;;;;;5074250;28;20033;-75
2023/01/25 05:01:36;;;;;;;1999.90;999.90;;;2.10;99.90;;;;;;5074111;28;20506;-75
2023/01/25 05:04:02;;;;;;;1999.90;999.90;;;2.10;99.90;;;;;;5072499;28;24714;-75
2023/01/25 05:06:27;;;;;;;1999.90;999.90;;;2.10;99.90;;;;;;5073956;28;20483;-75
2023/01/25 05:08:53;;;;;;;1999.90;999.90;;;2.10;99.90;;;;;;5073986;28;20033;-75
2023/01/25 05:11:18;;;;;;;1999.90;999.90;;;2.10;99.90;;;;;;5074328;28;20043;-75
2023/01/25 05:13:44;;;;;;;1999.90;999.90;;;2.10;99.90;;;;;;5073937;28;20187;-74
2023/01/25 05:16:09;;;;;;;1999.90;999.90;;;2.20;99.90;;;;;;5073883;28;20033;-74
2023/01/25 05:18:35;;;;;;;1999.90;999.90;;;2.10;99.90;;;;;;5072131;28;20067;-75
2023/01/25 05:21:01;;;;;;;1999.90;999.90;;;2.20;99.90;;;;;;5076773;28;20033;-76
2023/01/25 05:23:26;;;;;;;1999.90;999.90;;;2.10;99.90;;;;;;5077379;28;20069;-76
2023/01/25 05:28:36;;;;;;;1999.90;999.90;;;2.20;99.90;;;;;;5077776;28;20064;-76
2023/01/25 05:31:05;;;;;;;1999.90;999.90;;;2.20;99.90;;;;;;5077299;28;20487;-76
2023/01/25 05:33:30;;;;;;;1999.90;999.90;;;2.20;99.90;;;;;;5077402;28;20091;-74
2023/01/25 05:35:57;;;;;;;1999.90;999.90;;;2.20;99.90;;;;;;5076666;28;24920;-75
2023/01/25 05:38:23;;;;;;;1999.90;999.90;;;2.20;99.90;;;;;;5075408;28;20041;-75
2023/01/25 05:40:49;;;;;;;1999.90;999.90;;;2.20;99.90;;;;;;5077402;28;20029;-75
2023/01/25 05:43:14;;;;;;;1999.90;999.90;;;2.20;99.90;;;;;;5077418;28;20410;-75
2023/01/25 05:45:40;;;;;;;1999.90;999.90;;;2.20;99.90;;;;;;5076977;28;20025;-75
2023/01/25 05:48:05;;;;;;;1999.90;999.90;;;2.20;99.90;;;;;;5076584;28;20047;-74
2023/01/25 05:50:31;;;;;;;1999.90;999.90;;;2.20;99.90;;;;;;5077438;28;20029;-74
2023/01/25 05:52:56;;;;;;;1999.90;999.90;;;2.20;99.90;;;;;;5076758;28;20187;-74
2023/01/25 05:55:22;;;;;;;1999.90;999.90;;;2.20;99.90;;;;;;5076922;28;20117;-75
2023/01/25 05:57:47;;;;;;;1999.90;999.90;;;2.20;99.90;;;;;;5076795;28;20040;-76
2023/01/25 06:00:13;;;;;;;1999.90;999.90;;;2.20;99.90;;;;;;5077678;28;20040;-75
2023/01/25 06:02:39;;;;;;;1999.90;999.90;;;2.20;99.90;;;;;;5077465;28;20064;-75
2023/01/25 06:05:05;;;;;;;1999.90;999.90;;;2.20;99.90;;;;;;5077457;28;20055;-76
2023/01/25 06:07:35;;;;;;;1999.90;999.90;;;2.20;99.90;;;;;;5076646;28;20048;-76
2023/01/25 06:10:02;;;;;;;1999.90;999.90;;;2.20;99.90;;;;;;5076953;28;20036;-75
2023/01/25 06:12:28;;;;;;;1999.90;999.90;;;2.20;99.90;;;;;;5076433;28;20529;-75
2023/01/25 06:14:53;;;;;;;1999.90;999.90;;;2.20;99.90;;;;;;5076997;28;20039;-76
2023/01/25 06:17:19;;;;;;;1999.90;999.90;;;2.20;99.90;;;;;;5077112;28;20346;-74
2023/01/25 06:19:44;;;;;;;1999.90;999.90;;;2.20;99.90;;;;;;5077143;28;21701;-75
2023/01/25 06:22:10;;;;;;;1999.90;999.90;;;2.20;99.90;;;;;;5076892;28;20123;-75
2023/01/25 06:24:35;;;;;;;1999.90;999.90;;;2.20;99.90;;;;;;5074798;28;22899;-75
2023/01/25 06:27:01;;;;;;;1999.90;999.90;;;2.20;99.90;;;;;;5076520;28;20467;-76
2023/01/25 06:29:26;;;;;;;1999.90;999.90;;;2.20;99.90;;;;;;5074824;28;26710;-76
2023/01/25 06:31:52;;;;;;;1999.90;999.90;;;2.20;99.90;;;;;;5074966;28;20029;-76
2023/01/25 06:34:17;;;;;;;1999.90;999.90;;;2.20;99.90;;;;;;5076528;28;20040;-76
2023/01/25 06:36:43;;;;;;;1999.90;999.90;;;2.20;99.90;;;;;;5076057;28;20041;-75
2023/01/25 06:39:08;;;;;;;1999.90;999.90;;;2.30;99.90;;;;;;5075945;28;20036;-75
2023/01/25 06:41:34;;;;;;;1999.90;999.90;;;2.20;99.90;;;;;;5076419;28;20108;-75
2023/01/25 06:43:59;;;;;;;1999.90;999.90;;;2.20;99.90;;;;;;5074668;28;20029;-76
2023/01/25 06:46:25;;;;;;;1999.90;999.90;;;2.20;99.90;;;;;;5076326;28;20028;-75
2023/01/25 06:48:50;;;;;;;1999.90;999.90;;;2.20;99.90;;;;;;5075083;28;20125;-75
2023/01/25 06:51:16;;;;;;;1999.90;999.90;;;2.20;99.90;;;;;;5076602;28;20041;-75
2023/01/25 06:53:44;;;;;;;1999.90;999.90;;;2.20;99.90;;;;;;5076077;28;20040;-75
2023/01/25 06:56:11;;;;;;;1999.90;999.90;;;2.20;99.90;;;;;;5076033;28;20037;-75
2023/01/25 06:58:37;;;;;;;1999.90;999.90;;;2.30;99.90;;;;;;5074430;28;20140;-75
2023/01/25 07:01:11;;;;;;;1999.90;999.90;;;2.30;99.90;;;;;;5075865;28;20044;-75
2023/01/25 07:03:37;;;;;;;1999.90;999.90;;;2.20;99.90;;;;;;5076357;28;20035;-74
2023/01/25 07:06:05;;;;;;;1999.90;999.90;;;2.20;99.90;;;;;;5074699;28;20374;-74
2023/01/25 07:08:31;;;;;;;1999.90;999.90;;;2.20;99.90;;;;;;5074008;28;20036;-74
2023/01/25 07:11:00;;;;;;;1999.90;999.90;;;2.20;99.90;;;;;;5075933;28;20037;-75
2023/01/25 07:13:27;;;;;;;1999.90;999.90;;;2.20;99.90;;;;;;5075893;28;20043;-76
2023/01/25 07:16:03;;;;;;;1999.90;999.90;;;2.20;99.90;;;;;;5075543;28;20033;-75
2023/01/25 07:18:30;;;;;;;1999.90;999.90;;;2.20;99.90;;;;;;5075271;28;20128;-73
2023/01/25 07:21:17;;;;;;;1999.90;999.90;;;2.20;99.90;;;;;;5075766;28;20442;-75
2023/01/25 07:23:43;;;;;;;1999.90;999.90;;;2.20;99.90;;;;;;5075949;28;20091;-75
2023/01/25 07:26:22;;;;;;;1999.90;999.90;;;2.30;99.90;;;;;;5075726;28;20395;-75
2023/01/25 07:28:48;;;;;;;1999.90;999.90;;;2.30;99.90;;;;;;5075471;28;20116;-79
2023/01/25 07:31:16;;;;;;;1999.90;999.90;;;2.30;99.90;;;;;;5072120;28;20523;-76
2023/01/25 07:33:42;;;;;;;1999.90;999.90;;;2.30;99.90;;;;;;5073629;28;20131;-80
2023/01/25 07:36:09;;;;;;;1999.90;999.90;;;2.30;99.90;;;;;;5073791;28;20037;-75
2023/01/25 07:38:36;;;;;;;1999.90;999.90;;;2.30;99.90;;;;;;5073489;28;20033;-75
2023/01/25 07:41:02;;;;;;;1999.90;999.90;;;2.40;99.90;;;;;;5075484;28;20065;-75
2023/01/25 07:43:28;;;;;;;1999.90;999.90;;;2.40;99.90;;;;;;5075066;28;20055;-76
2023/01/25 07:45:58;;;;;;;1999.90;999.90;;;2.40;99.90;;;;;;5075398;28;20479;-76
2023/01/25 07:48:25;;;;;;;1999.90;999.90;;;2.40;99.90;;;;;;5073492;28;20128;-76
2023/01/25 07:51:10;;;;;;;1999.90;999.90;;;2.40;99.90;;;;;;5075116;28;20116;-76
2023/01/25 07:53:39;;;;;;;1999.90;999.90;;;2.30;99.90;;;;;;5075185;28;20049;-76
2023/01/25 07:56:05;;;;;;;1999.90;999.90;;;2.40;99.90;;;;;;5075155;28;20571;-76
2023/01/25 07:58:31;;;;;;;1999.90;999.90;;;2.40;99.90;;;;;;5075105;28;20095;-75
2023/01/25 08:00:56;;;;;;;1999.90;999.90;;;2.40;99.90;;;;;;5075293;28;20087;-74
2023/01/25 08:03:22;;;;;;;1999.90;999.90;;;2.40;99.90;;;;;;5073396;28;20611;-74
2023/01/25 08:05:47;;;;;;;1999.90;999.90;;;2.40;99.90;;;;;;5073427;28;20021;-75
2023/01/25 08:08:14;;;;;;;1999.90;999.90;;;2.40;99.90;;;;;;5074772;28;20086;-76
2023/01/25 08:10:39;;;;;;;1999.90;999.90;;;2.40;99.90;;;;;;5075093;28;20068;-76
2023/01/25 08:13:05;;;;;;;1999.90;999.90;;;2.50;99.90;;;;;;5075011;28;20128;-75
2023/01/25 08:15:31;;;;;;;1999.90;999.90;;;2.50;99.90;;;;;;5074327;28;20466;-75
2023/01/25 08:18:00;;;;;;;1999.90;999.90;;;2.50;99.90;;;;;;5073866;28;20041;-76
2023/01/25 08:20:25;;;;;;;1999.90;999.90;;;2.40;99.90;;;;;;5073201;28;20057;-75
2023/01/25 08:22:51;;;;;;;1999.90;999.90;;;2.40;99.90;;;;;;5074426;28;20045;-75
2023/01/25 08:25:17;;;;;;;1999.90;999.90;;;2.40;99.90;;;;;;5074750;28;20067;-75
2023/01/25 08:27:43;;;;;;;1999.90;999.90;;;2.40;99.90;;;;;;5074344;28;20033;-76
2023/01/25 08:30:10;;;;;;;1999.90;999.90;;;2.40;99.90;;;;;;5074734;28;20071;-76
2023/01/25 08:32:37;;;;;;;1999.90;999.90;;;2.40;99.90;;;;;;5073029;28;20502;-76
2023/01/25 08:35:02;;;;;;;1999.90;999.90;;;2.40;99.90;;;;;;5074744;28;20494;-76
2023/01/25 08:37:28;;;;;;;1999.90;999.90;;;2.40;99.90;;;;;;5089199;28;20055;-81
2023/01/25 08:39:56;;;;;;;1999.90;999.90;;;2.40;99.90;;;;;;5088109;28;20124;-76
2023/01/25 08:42:23;;;;;;;1999.90;999.90;;;2.40;99.90;;;;;;5079230;28;20032;-76
2023/01/25 08:44:48;;;;;;;1999.90;999.90;;;2.50;99.90;;;;;;5087096;28;20033;-76
2023/01/25 08:47:14;;;;;;;1999.90;999.90;;;2.50;99.90;;;;;;5090392;28;20041;-76
2023/01/25 08:49:39;;;;;;;1999.90;999.90;;;2.60;99.90;;;;;;5092049;28;20127;-75
2023/01/25 08:52:05;;;;;;;1999.90;999.90;;;2.50;99.90;;;;;;5093634;28;20068;-75
2023/01/25 08:54:30;;;;;;;1999.90;999.90;;;2.60;99.90;;;;;;5088524;28;20064;-75
2023/01/25 08:56:56;;;;;;;1999.90;999.90;;;2.60;99.90;;;;;;5088902;28;20071;-75
2023/01/25 08:59:22;;;;;;;1999.90;999.90;;;2.60;99.90;;;;;;5094664;28;20032;-75
2023/01/25 09:01:47;;;;;;;1999.90;999.90;;;2.60;99.90;;;;;;5094640;28;20037;-77
2023/01/25 09:04:13;;;;;;;1999.90;999.90;;;2.60;99.90;;;;;;5094452;28;20032;-75
2023/01/25 09:06:38;;;;;;;1999.90;999.90;;;2.60;99.90;;;;;;5084456;28;20170;-77
2023/01/25 09:09:04;;;;;;;1999.90;999.90;;;2.60;99.90;;;;;;5094226;28;20110;-77
2023/01/25 09:11:33;;;;;;;1999.90;999.90;;;2.60;99.90;;;;;;5093711;28;20154;-77
2023/01/25 09:13:58;;;;;;;1999.90;999.90;;;2.60;99.90;;;;;;5091478;28;20032;-77
2023/01/25 09:16:27;;;;;;;1999.90;999.90;;;2.60;99.90;;;;;;5075841;28;20040;-76
2023/01/25 09:18:57;;;;;;;1999.90;999.90;;;2.70;99.90;;;;;;5079242;28;20068;-76
2023/01/25 09:21:23;;;;;;;1999.90;999.90;;;2.70;99.90;;;;;;5094698;28;20025;-77
2023/01/25 09:23:53;;;;;;;1999.90;999.90;;;2.70;99.90;;;;;;5094482;28;20033;-77
2023/01/25 09:26:19;;;;;;;1999.90;999.90;;;2.70;99.90;;;;;;5074825;28;20024;-78
2023/01/25 09:28:49;;;;;;;1999.90;999.90;;;2.70;99.90;;;;;;5094124;28;20402;-76
2023/01/25 09:31:15;;;;;;;1999.90;999.90;;;2.70;99.90;;;;;;5094083;28;20020;-76
2023/01/25 09:33:41;;;;;;;1999.90;999.90;;;2.70;99.90;;;;;;5094667;28;20028;-75
2023/01/25 09:36:08;;;;;;;1999.90;999.90;;;2.70;99.90;;;;;;5094045;28;20029;-75
2023/01/25 09:38:34;;;;;;;1999.90;999.90;;;2.70;99.90;;;;;;5088350;28;20045;-75
2023/01/25 09:41:09;;;;;;;1999.90;999.90;;;2.70;99.90;;;;;;5085868;28;20036;-74
2023/01/25 09:43:44;;;;;;;1999.90;999.90;;;2.80;99.90;;;;;;5084896;28;20414;-75
2023/01/25 09:46:29;;;;;;;1999.90;999.90;;;2.90;99.90;;;;;;5078210;28;20037;-75
2023/01/25 09:49:14;;;;;;;1999.90;999.90;;;2.90;99.90;;;;;;5093687;28;20040;-75
2023/01/25 09:51:43;;;;;;;1999.90;999.90;;;3.00;99.90;;;;;;5092320;28;20569;-75
2023/01/25 09:54:09;;;;;;;1999.90;999.90;;;3.00;99.90;;;;;;5093682;28;20518;-75
2023/01/25 09:56:37;;;;;;;1999.90;999.90;;;2.90;99.90;;;;;;5084051;28;20176;-75
2023/01/25 09:59:08;;;;;;;1999.90;999.90;;;3.00;99.90;;;;;;5073386;28;20079;-75
2023/01/25 10:01:56;;;;;;;1999.90;999.90;;;3.00;99.90;;;;;;5086674;28;20129;-75
2023/01/25 10:04:25;;;;;;;1999.90;999.90;;;3.00;99.90;;;;;;5080832;28;20033;-75
2023/01/25 10:06:57;;;;;;;1999.90;999.90;;;2.90;99.90;;;;;;5086670;28;20398;-76
2023/01/25 10:09:48;;;;;;;1999.90;999.90;;;2.90;99.90;;;;;;5097371;28;20039;-75
2023/01/25 10:12:22;;;;;;;1999.90;999.90;;;2.80;99.90;;;;;;5096703;28;20103;-75
2023/01/25 10:14:48;;;;;;;1999.90;999.90;;;2.90;99.90;;;;;;5085594;28;20036;-75
2023/01/25 10:17:40;;;;;;;1999.90;999.90;;;2.80;99.90;;;;;;5096612;28;20110;-75
2023/01/25 10:20:43;;;;;;;1999.90;999.90;;;2.90;99.90;;;;;;5096798;28;20036;-75
2023/01/25 10:23:50;;;;;;;1999.90;999.90;;;2.90;99.90;;;;;;5089754;28;20062;-75
2023/01/25 10:26:22;;;;;;;1999.90;999.90;;;2.80;99.90;;;;;;5078148;28;20045;-75
2023/01/25 10:29:06;;;;;;;1999.90;999.90;;;2.90;99.90;;;;;;5079945;28;20040;-75
2023/01/25 10:31:50;;;;;;;1999.90;999.90;;;2.80;99.90;;;;;;5078260;28;20033;-75
2023/01/25 10:34:36;;;;;;;1999.90;999.90;;;2.80;99.90;;;;;;5076410;28;20465;-75
2023/01/25 10:37:14;;;;;;;1999.90;999.90;;;2.80;99.90;;;;;;5076272;28;20450;-75
2023/01/25 10:40:01;;;;;;;1999.90;999.90;;;2.80;99.90;;;;;;5075479;28;20079;-76
2023/01/25 10:42:32;;;;;;;1999.90;999.90;;;2.80;99.90;;;;;;5079387;28;20041;-75
2023/01/25 10:44:57;;;;;;;1999.90;999.90;;;2.80;99.90;;;;;;5095065;28;20033;-76
2023/01/25 10:47:25;;;;;;;1999.90;999.90;;;2.80;99.90;;;;;;5080916;28;20037;-77
2023/01/25 10:49:57;;;;;;;1999.90;999.90;;;2.80;99.90;;;;;;5081907;28;20444;-75
2023/01/25 10:52:30;;;;;;;1999.90;999.90;;;2.90;99.90;;;;;;5090865;28;20046;-76
2023/01/25 10:55:19;;;;;;;1999.90;999.90;;;2.90;99.90;;;;;;5082153;28;20029;-77
2023/01/25 10:57:48;;;;;;;1999.90;999.90;;;2.90;99.90;;;;;;5087555;28;20110;-76
2023/01/25 11:00:26;;;;;;;1999.90;999.90;;;2.80;99.90;;;;;;5087608;28;20498;-75
2023/01/25 11:02:55;;;;;;;1999.90;999.90;;;2.80;99.90;;;;;;5075988;28;20044;-76
2023/01/25 11:05:23;;;;;;;1999.90;999.90;;;2.80;99.90;;;;;;5074132;28;20029;-75
2023/01/25 11:07:49;;;;;;;1999.90;999.90;;;2.80;99.90;;;;;;5075822;28;20032;-75
2023/01/25 11:10:31;;;;;;;1999.90;999.90;;;2.80;99.90;;;;;;5089483;28;20367;-75
2023/01/25 11:13:15;;;;;;;1999.90;999.90;;;2.80;99.90;;;;;;5082670;28;20045;-76
2023/01/25 11:15:45;;;;;;;1999.90;999.90;;;2.70;99.90;;;;;;5081068;28;20033;-76
2023/01/25 11:18:19;;;;;;;1999.90;999.90;;;2.80;99.90;;;;;;5073120;28;20119;-76
2023/01/25 11:20:45;;;;;;;1999.90;999.90;;;2.80;99.90;;;;;;5088903;28;20071;-77
2023/01/25 11:23:20;;;;;;;1999.90;999.90;;;2.80;99.90;;;;;;5075502;28;20068;-76
2023/01/25 11:25:46;;;;;;;1999.90;999.90;;;2.80;99.90;;;;;;5075258;28;20035;-76
2023/01/25 11:28:20;;;;;;;1999.90;999.90;;;2.70;99.90;;;;;;5083909;28;20037;-76
2023/01/25 11:30:46;;;;;;;1999.90;999.90;;;2.70;99.90;;;;;;5075298;28;20494;-75
2023/01/25 11:33:13;;;;;;;1999.90;999.90;;;2.70;99.90;;;;;;5089220;28;20045;-74
2023/01/25 11:36:03;;;;;;;1999.90;999.90;;;2.80;99.90;;;;;;5074062;28;20029;-75
2023/01/25 11:38:29;;;;;;;1999.90;999.90;;;2.70;99.90;;;;;;5075611;28;20124;-75
2023/01/25 11:41:18;;;;;;;1999.90;999.90;;;2.80;99.90;;;;;;5075597;28;20033;-75
2023/01/25 11:44:19;;;;;;;1999.90;999.90;;;2.70;99.90;;;;;;5069340;28;20056;-76
2023/01/25 11:46:53;;;;;;;1999.90;999.90;;;2.70;99.90;;;;;;5036476;28;20050;-75
2023/01/25 11:49:31;;;;;;;1999.90;999.90;;;2.80;99.90;;;;;;5078355;28;20163;-75
2023/01/25 11:52:20;;;;;;;1999.90;999.90;;;2.90;99.90;;;;;;5079547;28;20645;-76
2023/01/25 11:54:58;;;;;;;1999.90;999.90;;;2.90;99.90;;;;;;5096008;28;20082;-75
2023/01/25 11:57:32;;;;;;;1999.90;999.90;;;3.00;99.90;;;;;;5086125;28;20037;-76
2023/01/25 12:00:03;;;;;;;1999.90;999.90;;;2.90;99.90;;;;;;5090101;28;20029;-79
2023/01/25 12:02:48;;;;;;;1999.90;999.90;;;2.90;99.90;;;;;;5095809;28;20024;-75
2023/01/25 12:05:32;;;;;;;1999.90;999.90;;;2.80;99.90;;;;;;5095582;28;20098;-75
2023/01/25 12:08:16;;;;;;;1999.90;999.90;;;2.80;99.90;;;;;;5095378;28;20048;-76
2023/01/25 12:10:57;;;;;;;1999.90;999.90;;;2.90;99.90;;;;;;5075515;28;20033;-75
2023/01/25 12:13:46;;;;;;;1999.90;999.90;;;2.80;99.90;;;;;;5073661;28;20029;-77
2023/01/25 12:16:27;;;;;;;1999.90;999.90;;;2.80;99.90;;;;;;5073285;28;20033;-74
2023/01/25 12:19:11;;;;;;;1999.90;999.90;;;2.90;99.90;;;;;;5086437;28;20037;-75
2023/01/25 12:21:40;;;;;;;1999.90;999.90;;;2.90;99.90;;;;;;5073311;28;20025;-78